sensor_id;sensor_type;location;lat;lon;timestamp;pressure;altitude;pressure_sealevel;temperature;humidity
64316;BME280;50652;51.482;-0.580;2023-05-24T00:01:46;102547.04;;;14.83;48.68
64316;BME280;50652;51.482;-0.580;2023-05-24T00:04:13;102542.70;;;14.62;48.98
64316;BME280;50652;51.482;-0.580;2023-05-24T00:06:40;102539.65;;;14.88;48.90
64316;BME280;50652;51.482;-0.580;2023-05-24T00:09:07;102539.88;;;14.51;48.52
64316;BME280;50652;51.482;-0.580;2023-05-24T00:11:34;102536.63;;;14.68;48.65
64316;BME280;50652;51.482;-0.580;2023-05-24T00:14:03;102534.77;;;14.56;48.85
64316;BME280;50652;51.482;-0.580;2023-05-24T00:16:30;102534.31;;;14.82;48.96
64316;BME280;50652;51.482;-0.580;2023-05-24T00:18:58;102539.77;;;14.36;49.65
64316;BME280;50652;51.482;-0.580;2023-05-24T00:21:25;102542.36;;;14.40;49.52
64316;BME280;50652;51.482;-0.580;2023-05-24T00:23:52;102547.40;;;14.37;50.29
64316;BME280;50652;51.482;-0.580;2023-05-24T00:26:19;102549.86;;;14.39;50.37
64316;BME280;50652;51.482;-0.580;2023-05-24T00:28:46;102549.30;;;14.40;49.66
64316;BME280;50652;51.482;-0.580;2023-05-24T00:31:13;102546.40;;;14.43;49.82
64316;BME280;50652;51.482;-0.580;2023-05-24T00:33:40;102545.65;;;14.44;50.39
64316;BME280;50652;51.482;-0.580;2023-05-24T00:36:07;102545.36;;;14.67;49.68
64316;BME280;50652;51.482;-0.580;2023-05-24T00:38:35;102544.09;;;14.58;49.88
64316;BME280;50652;51.482;-0.580;2023-05-24T00:41:03;102543.38;;;14.59;49.53
64316;BME280;50652;51.482;-0.580;2023-05-24T00:43:30;102539.23;;;14.33;49.92
64316;BME280;50652;51.482;-0.580;2023-05-24T00:46:14;102540.59;;;14.47;49.49
64316;BME280;50652;51.482;-0.580;2023-05-24T00:48:42;102538.68;;;14.41;49.47
64316;BME280;50652;51.482;-0.580;2023-05-24T00:51:11;102540.47;;;14.38;49.58
64316;BME280;50652;51.482;-0.580;2023-05-24T00:53:39;102540.24;;;14.18;49.63
64316;BME280;50652;51.482;-0.580;2023-05-24T00:56:07;102534.78;;;14.36;49.60
64316;BME280;50652;51.482;-0.580;2023-05-24T00:58:35;102530.92;;;14.36;49.64
64316;BME280;50652;51.482;-0.580;2023-05-24T01:01:04;102528.12;;;13.91;49.81
64316;BME280;50652;51.482;-0.580;2023-05-24T01:03:32;102524.00;;;14.19;49.65
64316;BME280;50652;51.482;-0.580;2023-05-24T01:06:01;102525.44;;;13.95;51.49
64316;BME280;50652;51.482;-0.580;2023-05-24T01:08:42;102524.71;;;14.15;49.90
64316;BME280;50652;51.482;-0.580;2023-05-24T01:11:18;102526.08;;;14.14;49.97
64316;BME280;50652;51.482;-0.580;2023-05-24T01:13:53;102526.35;;;14.21;49.94
64316;BME280;50652;51.482;-0.580;2023-05-24T01:16:31;102526.33;;;14.48;49.99
64316;BME280;50652;51.482;-0.580;2023-05-24T01:19:14;102524.41;;;14.36;50.43
64316;BME280;50652;51.482;-0.580;2023-05-24T01:21:53;102515.93;;;14.04;50.78
64316;BME280;50652;51.482;-0.580;2023-05-24T01:24:29;102513.84;;;13.97;50.45
64316;BME280;50652;51.482;-0.580;2023-05-24T01:27:04;102511.65;;;13.97;50.51
64316;BME280;50652;51.482;-0.580;2023-05-24T01:29:33;102511.43;;;14.18;50.72
64316;BME280;50652;51.482;-0.580;2023-05-24T01:32:01;102512.06;;;13.89;50.64
64316;BME280;50652;51.482;-0.580;2023-05-24T01:34:28;102510.41;;;13.91;50.58
64316;BME280;50652;51.482;-0.580;2023-05-24T01:36:55;102508.84;;;13.88;50.58
64316;BME280;50652;51.482;-0.580;2023-05-24T01:39:26;102509.76;;;14.02;50.49
64316;BME280;50652;51.482;-0.580;2023-05-24T01:42:02;102509.92;;;13.89;50.53
64316;BME280;50652;51.482;-0.580;2023-05-24T01:44:35;102510.32;;;14.00;50.25
64316;BME280;50652;51.482;-0.580;2023-05-24T01:47:12;102506.87;;;13.87;50.18
64316;BME280;50652;51.482;-0.580;2023-05-24T01:49:50;102502.36;;;13.88;50.29
64316;BME280;50652;51.482;-0.580;2023-05-24T01:52:23;102499.69;;;13.79;50.23
64316;BME280;50652;51.482;-0.580;2023-05-24T01:54:53;102500.84;;;13.96;50.43
64316;BME280;50652;51.482;-0.580;2023-05-24T01:57:24;102503.56;;;14.04;50.49
64316;BME280;50652;51.482;-0.580;2023-05-24T01:59:53;102500.70;;;14.01;50.35
64316;BME280;50652;51.482;-0.580;2023-05-24T02:02:21;102501.08;;;13.55;51.16
64316;BME280;50652;51.482;-0.580;2023-05-24T02:04:49;102502.61;;;13.51;51.30
64316;BME280;50652;51.482;-0.580;2023-05-24T02:07:16;102500.03;;;13.83;50.73
64316;BME280;50652;51.482;-0.580;2023-05-24T02:09:44;102499.23;;;13.57;50.65
64316;BME280;50652;51.482;-0.580;2023-05-24T02:12:11;102501.34;;;13.59;50.82
64316;BME280;50652;51.482;-0.580;2023-05-24T02:14:38;102499.56;;;13.91;50.92
64316;BME280;50652;51.482;-0.580;2023-05-24T02:17:05;102499.93;;;13.68;50.72
64316;BME280;50652;51.482;-0.580;2023-05-24T02:19:32;102497.90;;;13.64;50.88
64316;BME280;50652;51.482;-0.580;2023-05-24T02:21:59;102495.77;;;13.84;51.04
64316;BME280;50652;51.482;-0.580;2023-05-24T02:24:26;102493.53;;;13.67;51.37
64316;BME280;50652;51.482;-0.580;2023-05-24T02:26:53;102492.59;;;13.80;51.10
64316;BME280;50652;51.482;-0.580;2023-05-24T02:29:21;102495.42;;;13.54;50.98
64316;BME280;50652;51.482;-0.580;2023-05-24T02:31:49;102501.52;;;13.56;51.56
64316;BME280;50652;51.482;-0.580;2023-05-24T02:34:16;102503.98;;;13.64;51.34
64316;BME280;50652;51.482;-0.580;2023-05-24T02:36:44;102499.32;;;13.61;51.29
64316;BME280;50652;51.482;-0.580;2023-05-24T02:39:11;102497.77;;;13.52;51.20
64316;BME280;50652;51.482;-0.580;2023-05-24T02:41:39;102500.07;;;13.72;50.76
64316;BME280;50652;51.482;-0.580;2023-05-24T02:44:06;102500.03;;;13.87;51.54
64316;BME280;50652;51.482;-0.580;2023-05-24T02:46:33;102498.98;;;13.12;51.83
64316;BME280;50652;51.482;-0.580;2023-05-24T02:49:00;102497.67;;;13.47;51.31
64316;BME280;50652;51.482;-0.580;2023-05-24T02:51:26;102500.70;;;13.10;51.83
64316;BME280;50652;51.482;-0.580;2023-05-24T02:53:53;102500.08;;;13.45;51.60
64316;BME280;50652;51.482;-0.580;2023-05-24T02:56:20;102498.48;;;13.02;51.82
64316;BME280;50652;51.482;-0.580;2023-05-24T02:58:47;102498.46;;;12.80;52.54
64316;BME280;50652;51.482;-0.580;2023-05-24T03:01:14;102495.75;;;12.98;52.12
64316;BME280;50652;51.482;-0.580;2023-05-24T03:03:40;102494.19;;;13.20;52.23
64316;BME280;50652;51.482;-0.580;2023-05-24T03:06:08;102491.75;;;12.91;52.72
64316;BME280;50652;51.482;-0.580;2023-05-24T03:08:35;102487.14;;;13.21;52.84
64316;BME280;50652;51.482;-0.580;2023-05-24T03:11:02;102490.30;;;12.91;52.81
64316;BME280;50652;51.482;-0.580;2023-05-24T03:13:29;102491.26;;;12.96;52.60
64316;BME280;50652;51.482;-0.580;2023-05-24T03:15:57;102494.98;;;12.98;52.48
64316;BME280;50652;51.482;-0.580;2023-05-24T03:18:24;102499.90;;;13.02;52.52
64316;BME280;50652;51.482;-0.580;2023-05-24T03:20:51;102505.84;;;12.89;52.48
64316;BME280;50652;51.482;-0.580;2023-05-24T03:23:18;102502.14;;;13.07;52.69
64316;BME280;50652;51.482;-0.580;2023-05-24T03:25:46;102504.85;;;12.91;52.34
64316;BME280;50652;51.482;-0.580;2023-05-24T03:28:13;102504.42;;;12.86;52.27
64316;BME280;50652;51.482;-0.580;2023-05-24T03:30:40;102502.19;;;13.28;51.69
64316;BME280;50652;51.482;-0.580;2023-05-24T03:33:07;102499.54;;;12.99;51.74
64316;BME280;50652;51.482;-0.580;2023-05-24T03:35:34;102505.27;;;13.07;51.92
64316;BME280;50652;51.482;-0.580;2023-05-24T03:38:01;102503.68;;;12.94;51.70
64316;BME280;50652;51.482;-0.580;2023-05-24T03:40:28;102504.88;;;12.73;52.28
64316;BME280;50652;51.482;-0.580;2023-05-24T03:42:55;102499.26;;;13.15;51.55
64316;BME280;50652;51.482;-0.580;2023-05-24T03:45:21;102504.11;;;13.08;51.67
64316;BME280;50652;51.482;-0.580;2023-05-24T03:47:48;102505.01;;;13.18;51.54
64316;BME280;50652;51.482;-0.580;2023-05-24T03:50:16;102509.36;;;12.77;51.93
64316;BME280;50652;51.482;-0.580;2023-05-24T03:52:43;102508.22;;;12.78;51.61
64316;BME280;50652;51.482;-0.580;2023-05-24T03:55:10;102510.39;;;12.67;52.00
64316;BME280;50652;51.482;-0.580;2023-05-24T03:57:37;102510.27;;;12.62;52.53
64316;BME280;50652;51.482;-0.580;2023-05-24T04:00:06;102506.65;;;12.78;52.21
64316;BME280;50652;51.482;-0.580;2023-05-24T04:02:33;102507.51;;;12.76;52.40
64316;BME280;50652;51.482;-0.580;2023-05-24T04:05:01;102510.83;;;12.95;51.94
64316;BME280;50652;51.482;-0.580;2023-05-24T04:07:28;102517.18;;;12.81;51.94
64316;BME280;50652;51.482;-0.580;2023-05-24T04:09:56;102516.67;;;12.48;52.29
64316;BME280;50652;51.482;-0.580;2023-05-24T04:12:23;102517.98;;;13.08;51.93
64316;BME280;50652;51.482;-0.580;2023-05-24T04:14:50;102519.87;;;12.40;52.34
64316;BME280;50652;51.482;-0.580;2023-05-24T04:17:17;102520.65;;;13.06;51.53
64316;BME280;50652;51.482;-0.580;2023-05-24T04:19:45;102520.53;;;12.66;52.24
64316;BME280;50652;51.482;-0.580;2023-05-24T04:22:12;102517.78;;;13.07;52.21
64316;BME280;50652;51.482;-0.580;2023-05-24T04:24:40;102518.99;;;12.75;52.89
64316;BME280;50652;51.482;-0.580;2023-05-24T04:27:08;102515.58;;;12.59;52.95
64316;BME280;50652;51.482;-0.580;2023-05-24T04:29:35;102515.28;;;12.65;52.94
64316;BME280;50652;51.482;-0.580;2023-05-24T04:32:02;102513.17;;;12.99;52.84
64316;BME280;50652;51.482;-0.580;2023-05-24T04:34:30;102508.43;;;12.57;53.18
64316;BME280;50652;51.482;-0.580;2023-05-24T04:36:57;102506.89;;;12.48;52.77
64316;BME280;50652;51.482;-0.580;2023-05-24T04:39:23;102503.72;;;12.79;52.96
64316;BME280;50652;51.482;-0.580;2023-05-24T04:41:50;102504.30;;;12.71;53.49
64316;BME280;50652;51.482;-0.580;2023-05-24T04:44:17;102502.84;;;13.04;53.10
64316;BME280;50652;51.482;-0.580;2023-05-24T04:46:45;102501.61;;;12.90;53.59
64316;BME280;50652;51.482;-0.580;2023-05-24T04:49:12;102505.27;;;12.98;53.48
64316;BME280;50652;51.482;-0.580;2023-05-24T04:51:40;102505.52;;;12.99;53.26
64316;BME280;50652;51.482;-0.580;2023-05-24T04:54:06;102505.76;;;12.80;53.73
64316;BME280;50652;51.482;-0.580;2023-05-24T04:56:33;102503.71;;;13.06;53.38
64316;BME280;50652;51.482;-0.580;2023-05-24T04:59:01;102500.53;;;12.97;53.80
64316;BME280;50652;51.482;-0.580;2023-05-24T05:01:28;102500.38;;;12.78;53.97
64316;BME280;50652;51.482;-0.580;2023-05-24T05:03:55;102504.18;;;12.73;54.00
64316;BME280;50652;51.482;-0.580;2023-05-24T05:06:22;102505.43;;;13.24;54.34
64316;BME280;50652;51.482;-0.580;2023-05-24T05:08:49;102503.11;;;13.27;53.62
64316;BME280;50652;51.482;-0.580;2023-05-24T05:11:16;102506.35;;;12.62;55.02
64316;BME280;50652;51.482;-0.580;2023-05-24T05:13:43;102510.44;;;12.85;54.71
64316;BME280;50652;51.482;-0.580;2023-05-24T05:16:11;102506.17;;;13.38;54.56
64316;BME280;50652;51.482;-0.580;2023-05-24T05:18:38;102505.16;;;12.96;54.62
64316;BME280;50652;51.482;-0.580;2023-05-24T05:21:05;102501.38;;;13.23;54.77
64316;BME280;50652;51.482;-0.580;2023-05-24T05:23:32;102503.64;;;13.80;54.70
64316;BME280;50652;51.482;-0.580;2023-05-24T05:25:59;102501.22;;;13.37;55.15
64316;BME280;50652;51.482;-0.580;2023-05-24T05:28:27;102504.07;;;13.60;54.67
64316;BME280;50652;51.482;-0.580;2023-05-24T05:30:54;102507.65;;;13.55;54.28
64316;BME280;50652;51.482;-0.580;2023-05-24T05:33:20;102507.93;;;13.26;54.91
64316;BME280;50652;51.482;-0.580;2023-05-24T05:35:47;102506.51;;;13.17;54.86
64316;BME280;50652;51.482;-0.580;2023-05-24T05:38:14;102508.39;;;13.91;53.97
64316;BME280;50652;51.482;-0.580;2023-05-24T05:40:42;102504.20;;;13.62;54.69
64316;BME280;50652;51.482;-0.580;2023-05-24T05:43:10;102501.92;;;13.32;54.41
64316;BME280;50652;51.482;-0.580;2023-05-24T05:45:36;102507.82;;;13.87;54.37
64316;BME280;50652;51.482;-0.580;2023-05-24T05:48:03;102509.26;;;13.95;54.05
64316;BME280;50652;51.482;-0.580;2023-05-24T05:50:30;102512.46;;;13.81;54.23
64316;BME280;50652;51.482;-0.580;2023-05-24T05:52:57;102513.40;;;13.58;53.86
64316;BME280;50652;51.482;-0.580;2023-05-24T05:55:24;102510.57;;;13.95;53.48
64316;BME280;50652;51.482;-0.580;2023-05-24T05:57:52;102508.76;;;13.96;54.01
64316;BME280;50652;51.482;-0.580;2023-05-24T06:00:21;102508.31;;;13.99;53.69
64316;BME280;50652;51.482;-0.580;2023-05-24T06:02:48;102504.73;;;13.90;54.28
64316;BME280;50652;51.482;-0.580;2023-05-24T06:05:16;102507.83;;;13.98;54.16
64316;BME280;50652;51.482;-0.580;2023-05-24T06:07:44;102515.36;;;13.94;53.47
64316;BME280;50652;51.482;-0.580;2023-05-24T06:10:12;102514.44;;;13.58;53.78
64316;BME280;50652;51.482;-0.580;2023-05-24T06:12:39;102518.67;;;14.24;53.52
64316;BME280;50652;51.482;-0.580;2023-05-24T06:15:07;102516.99;;;14.21;53.63
64316;BME280;50652;51.482;-0.580;2023-05-24T06:17:36;102515.50;;;14.53;53.60
64316;BME280;50652;51.482;-0.580;2023-05-24T06:20:04;102517.17;;;14.19;54.10
64316;BME280;50652;51.482;-0.580;2023-05-24T06:22:31;102516.53;;;14.54;52.76
64316;BME280;50652;51.482;-0.580;2023-05-24T06:24:58;102524.78;;;14.60;53.62
64316;BME280;50652;51.482;-0.580;2023-05-24T06:27:25;102517.18;;;14.64;52.69
64316;BME280;50652;51.482;-0.580;2023-05-24T06:29:53;102520.23;;;14.63;53.25
64316;BME280;50652;51.482;-0.580;2023-05-24T06:32:20;102525.38;;;14.31;53.32
64316;BME280;50652;51.482;-0.580;2023-05-24T06:34:47;102528.67;;;14.42;53.10
64316;BME280;50652;51.482;-0.580;2023-05-24T06:37:14;102523.33;;;14.77;52.08
64316;BME280;50652;51.482;-0.580;2023-05-24T06:39:41;102527.77;;;14.54;53.25
64316;BME280;50652;51.482;-0.580;2023-05-24T06:42:08;102528.64;;;14.98;52.71
64316;BME280;50652;51.482;-0.580;2023-05-24T06:44:35;102527.39;;;15.18;52.55
64316;BME280;50652;51.482;-0.580;2023-05-24T06:47:03;102529.38;;;14.48;52.91
64316;BME280;50652;51.482;-0.580;2023-05-24T06:49:30;102531.17;;;15.06;52.32
64316;BME280;50652;51.482;-0.580;2023-05-24T06:51:57;102529.29;;;15.30;52.17
64316;BME280;50652;51.482;-0.580;2023-05-24T06:54:24;102528.40;;;15.60;51.56
64316;BME280;50652;51.482;-0.580;2023-05-24T06:56:52;102531.84;;;15.09;53.20
64316;BME280;50652;51.482;-0.580;2023-05-24T06:59:19;102531.11;;;15.09;52.46
64316;BME280;50652;51.482;-0.580;2023-05-24T07:01:46;102528.12;;;15.09;51.23
64316;BME280;50652;51.482;-0.580;2023-05-24T07:04:13;102528.79;;;15.78;51.37
64316;BME280;50652;51.482;-0.580;2023-05-24T07:06:41;102526.81;;;15.53;50.98
64316;BME280;50652;51.482;-0.580;2023-05-24T07:09:07;102526.43;;;16.12;50.74
64316;BME280;50652;51.482;-0.580;2023-05-24T07:11:35;102530.62;;;16.04;50.47
64316;BME280;50652;51.482;-0.580;2023-05-24T07:14:02;102530.55;;;16.17;50.02
64316;BME280;50652;51.482;-0.580;2023-05-24T07:16:28;102535.52;;;16.02;50.08
64316;BME280;50652;51.482;-0.580;2023-05-24T07:18:55;102537.83;;;16.05;49.77
64316;BME280;50652;51.482;-0.580;2023-05-24T07:21:22;102535.83;;;15.88;50.55
64316;BME280;50652;51.482;-0.580;2023-05-24T07:23:51;102538.82;;;16.42;49.36
64316;BME280;50652;51.482;-0.580;2023-05-24T07:26:18;102535.77;;;16.11;50.23
64316;BME280;50652;51.482;-0.580;2023-05-24T07:28:45;102531.04;;;16.48;49.67
64316;BME280;50652;51.482;-0.580;2023-05-24T07:31:13;102526.59;;;17.06;48.79
64316;BME280;50652;51.482;-0.580;2023-05-24T07:33:40;102533.27;;;16.69;49.00
64316;BME280;50652;51.482;-0.580;2023-05-24T07:36:07;102531.98;;;16.98;49.18
64316;BME280;50652;51.482;-0.580;2023-05-24T07:38:35;102531.66;;;17.36;48.71
64316;BME280;50652;51.482;-0.580;2023-05-24T07:41:02;102523.70;;;16.98;49.02
64316;BME280;50652;51.482;-0.580;2023-05-24T07:43:30;102520.31;;;17.63;48.47
64316;BME280;50652;51.482;-0.580;2023-05-24T07:45:57;102526.33;;;17.50;48.22
64316;BME280;50652;51.482;-0.580;2023-05-24T07:48:24;102527.57;;;17.26;48.48
64316;BME280;50652;51.482;-0.580;2023-05-24T07:50:51;102531.98;;;17.68;47.81
64316;BME280;50652;51.482;-0.580;2023-05-24T07:53:18;102528.71;;;17.27;48.06
64316;BME280;50652;51.482;-0.580;2023-05-24T07:55:45;102530.09;;;17.32;47.74
64316;BME280;50652;51.482;-0.580;2023-05-24T07:58:12;102532.58;;;17.04;47.77
64316;BME280;50652;51.482;-0.580;2023-05-24T08:00:39;102532.85;;;17.60;46.45
64316;BME280;50652;51.482;-0.580;2023-05-24T08:03:07;102534.92;;;17.69;47.31
64316;BME280;50652;51.482;-0.580;2023-05-24T08:05:33;102533.42;;;17.69;47.24
64316;BME280;50652;51.482;-0.580;2023-05-24T08:08:01;102530.03;;;17.63;47.18
64316;BME280;50652;51.482;-0.580;2023-05-24T08:10:28;102527.98;;;17.63;47.01
64316;BME280;50652;51.482;-0.580;2023-05-24T08:12:55;102525.16;;;17.78;46.18
64316;BME280;50652;51.482;-0.580;2023-05-24T08:15:23;102528.09;;;18.10;46.16
64316;BME280;50652;51.482;-0.580;2023-05-24T08:17:50;102530.01;;;17.50;45.61
64316;BME280;50652;51.482;-0.580;2023-05-24T08:20:17;102532.03;;;18.37;45.84
64316;BME280;50652;51.482;-0.580;2023-05-24T08:22:45;102532.41;;;18.07;45.35
64316;BME280;50652;51.482;-0.580;2023-05-24T08:25:12;102528.48;;;18.63;45.63
64316;BME280;50652;51.482;-0.580;2023-05-24T08:27:39;102523.64;;;18.99;44.51
64316;BME280;50652;51.482;-0.580;2023-05-24T08:30:07;102525.07;;;19.04;43.83
64316;BME280;50652;51.482;-0.580;2023-05-24T08:32:34;102527.84;;;18.86;44.31
64316;BME280;50652;51.482;-0.580;2023-05-24T08:35:02;102520.97;;;18.69;45.58
64316;BME280;50652;51.482;-0.580;2023-05-24T08:37:29;102525.13;;;18.48;44.63
64316;BME280;50652;51.482;-0.580;2023-05-24T08:39:56;102517.24;;;19.14;43.08
64316;BME280;50652;51.482;-0.580;2023-05-24T08:42:23;102513.67;;;19.62;43.33
64316;BME280;50652;51.482;-0.580;2023-05-24T08:44:52;102516.98;;;18.87;44.73
64316;BME280;50652;51.482;-0.580;2023-05-24T08:47:20;102508.06;;;18.76;43.93
64316;BME280;50652;51.482;-0.580;2023-05-24T08:49:49;102503.82;;;18.72;44.16
64316;BME280;50652;51.482;-0.580;2023-05-24T08:52:16;102497.85;;;18.85;43.64
64316;BME280;50652;51.482;-0.580;2023-05-24T08:54:44;102497.20;;;19.21;43.86
64316;BME280;50652;51.482;-0.580;2023-05-24T08:57:11;102493.31;;;19.56;43.36
64316;BME280;50652;51.482;-0.580;2023-05-24T08:59:40;102494.44;;;19.45;43.13
64316;BME280;50652;51.482;-0.580;2023-05-24T09:02:09;102486.95;;;19.36;43.60
64316;BME280;50652;51.482;-0.580;2023-05-24T09:04:38;102491.78;;;19.31;43.68
64316;BME280;50652;51.482;-0.580;2023-05-24T09:07:06;102484.90;;;19.78;43.29
64316;BME280;50652;51.482;-0.580;2023-05-24T09:09:34;102478.98;;;19.92;43.35
64316;BME280;50652;51.482;-0.580;2023-05-24T09:12:04;102478.61;;;19.56;42.47
64316;BME280;50652;51.482;-0.580;2023-05-24T09:14:32;102472.57;;;20.52;43.13
64316;BME280;50652;51.482;-0.580;2023-05-24T09:17:01;102474.08;;;19.63;41.95
64316;BME280;50652;51.482;-0.580;2023-05-24T09:19:29;102476.36;;;19.61;42.45
64316;BME280;50652;51.482;-0.580;2023-05-24T09:21:56;102477.83;;;19.42;42.12
64316;BME280;50652;51.482;-0.580;2023-05-24T09:24:24;102472.35;;;19.53;42.61
64316;BME280;50652;51.482;-0.580;2023-05-24T09:26:51;102471.35;;;19.26;42.74
64316;BME280;50652;51.482;-0.580;2023-05-24T09:29:21;102473.05;;;19.70;42.04
64316;BME280;50652;51.482;-0.580;2023-05-24T09:31:48;102465.46;;;19.34;42.06
64316;BME280;50652;51.482;-0.580;2023-05-24T09:34:15;102462.71;;;20.40;40.60
64316;BME280;50652;51.482;-0.580;2023-05-24T09:36:45;102466.70;;;20.20;42.53
64316;BME280;50652;51.482;-0.580;2023-05-24T09:39:12;102468.68;;;20.47;42.37
64316;BME280;50652;51.482;-0.580;2023-05-24T09:41:42;102469.56;;;20.62;41.97
64316;BME280;50652;51.482;-0.580;2023-05-24T09:44:12;102467.85;;;20.53;41.15
64316;BME280;50652;51.482;-0.580;2023-05-24T09:46:40;102466.89;;;20.22;40.61
64316;BME280;50652;51.482;-0.580;2023-05-24T09:49:06;102468.79;;;20.52;41.16
64316;BME280;50652;51.482;-0.580;2023-05-24T09:51:36;102467.24;;;20.51;40.89
64316;BME280;50652;51.482;-0.580;2023-05-24T09:54:04;102467.46;;;20.43;41.82
64316;BME280;50652;51.482;-0.580;2023-05-24T09:56:32;102470.67;;;20.32;40.84
64316;BME280;50652;51.482;-0.580;2023-05-24T09:59:05;102471.01;;;20.66;41.36
64316;BME280;50652;51.482;-0.580;2023-05-24T10:01:32;102475.24;;;20.38;40.76
64316;BME280;50652;51.482;-0.580;2023-05-24T10:03:59;102470.13;;;20.52;40.59
64316;BME280;50652;51.482;-0.580;2023-05-24T10:06:26;102469.13;;;21.32;40.48
64316;BME280;50652;51.482;-0.580;2023-05-24T10:08:54;102465.54;;;20.66;41.57
64316;BME280;50652;51.482;-0.580;2023-05-24T10:11:21;102458.63;;;21.53;40.57
64316;BME280;50652;51.482;-0.580;2023-05-24T10:13:48;102455.76;;;21.06;40.39
64316;BME280;50652;51.482;-0.580;2023-05-24T10:16:15;102454.16;;;21.26;39.76
64316;BME280;50652;51.482;-0.580;2023-05-24T10:18:43;102451.61;;;20.95;40.80
64316;BME280;50652;51.482;-0.580;2023-05-24T10:21:10;102443.84;;;21.36;40.23
64316;BME280;50652;51.482;-0.580;2023-05-24T10:23:38;102439.89;;;21.64;40.58
64316;BME280;50652;51.482;-0.580;2023-05-24T10:26:10;102445.99;;;21.85;40.04
64316;BME280;50652;51.482;-0.580;2023-05-24T10:28:43;102446.97;;;21.46;39.79
64316;BME280;50652;51.482;-0.580;2023-05-24T10:31:13;102451.77;;;21.09;39.42
64316;BME280;50652;51.482;-0.580;2023-05-24T10:33:43;102442.67;;;21.62;38.96
64316;BME280;50652;51.482;-0.580;2023-05-24T10:36:13;102442.62;;;21.62;41.04
64316;BME280;50652;51.482;-0.580;2023-05-24T10:38:41;102437.06;;;22.05;39.30
64316;BME280;50652;51.482;-0.580;2023-05-24T10:41:08;102432.17;;;22.13;40.12
64316;BME280;50652;51.482;-0.580;2023-05-24T10:43:36;102431.10;;;21.94;40.77
64316;BME280;50652;51.482;-0.580;2023-05-24T10:46:04;102435.92;;;21.34;39.73
64316;BME280;50652;51.482;-0.580;2023-05-24T10:48:33;102437.18;;;21.14;40.22
64316;BME280;50652;51.482;-0.580;2023-05-24T10:51:33;102432.68;;;20.69;41.10
64316;BME280;50652;51.482;-0.580;2023-05-24T10:54:17;102425.30;;;21.61;40.34
64316;BME280;50652;51.482;-0.580;2023-05-24T10:56:46;102425.49;;;21.56;38.71
64316;BME280;50652;51.482;-0.580;2023-05-24T10:59:23;102428.60;;;21.10;41.27
64316;BME280;50652;51.482;-0.580;2023-05-24T11:01:56;102426.68;;;21.75;39.98
64316;BME280;50652;51.482;-0.580;2023-05-24T11:04:24;102427.36;;;21.84;39.70
64316;BME280;50652;51.482;-0.580;2023-05-24T11:06:56;102431.40;;;22.04;39.42
64316;BME280;50652;51.482;-0.580;2023-05-24T11:09:26;102430.73;;;21.65;39.49
64316;BME280;50652;51.482;-0.580;2023-05-24T11:11:55;102427.21;;;21.82;41.04
64316;BME280;50652;51.482;-0.580;2023-05-24T11:14:25;102429.86;;;22.03;40.03
64316;BME280;50652;51.482;-0.580;2023-05-24T11:16:52;102428.28;;;21.90;40.10
64316;BME280;50652;51.482;-0.580;2023-05-24T11:19:20;102430.28;;;22.12;38.94
64316;BME280;50652;51.482;-0.580;2023-05-24T11:21:49;102425.16;;;22.23;38.24
64316;BME280;50652;51.482;-0.580;2023-05-24T11:24:18;102416.50;;;22.82;38.79
64316;BME280;50652;51.482;-0.580;2023-05-24T11:26:46;102419.51;;;22.48;38.96
64316;BME280;50652;51.482;-0.580;2023-05-24T11:29:13;102427.00;;;22.29;39.32
64316;BME280;50652;51.482;-0.580;2023-05-24T11:31:46;102421.97;;;22.24;39.17
64316;BME280;50652;51.482;-0.580;2023-05-24T11:34:13;102433.54;;;22.19;38.09
64316;BME280;50652;51.482;-0.580;2023-05-24T11:36:41;102425.95;;;22.30;39.24
64316;BME280;50652;51.482;-0.580;2023-05-24T11:39:08;102427.43;;;22.50;38.23
64316;BME280;50652;51.482;-0.580;2023-05-24T11:41:37;102424.09;;;22.95;38.21
64316;BME280;50652;51.482;-0.580;2023-05-24T11:44:07;102420.03;;;23.30;38.68
64316;BME280;50652;51.482;-0.580;2023-05-24T11:46:34;102428.47;;;22.07;39.13
64316;BME280;50652;51.482;-0.580;2023-05-24T11:49:02;102434.86;;;22.23;38.22
64316;BME280;50652;51.482;-0.580;2023-05-24T11:51:30;102434.19;;;21.89;37.05
64316;BME280;50652;51.482;-0.580;2023-05-24T11:53:58;102435.21;;;21.66;37.96
64316;BME280;50652;51.482;-0.580;2023-05-24T11:56:28;102436.24;;;22.61;38.89
64316;BME280;50652;51.482;-0.580;2023-05-24T11:59:08;102425.60;;;23.03;36.97
64316;BME280;50652;51.482;-0.580;2023-05-24T12:01:37;102422.57;;;22.30;37.91
64316;BME280;50652;51.482;-0.580;2023-05-24T12:04:05;102416.81;;;23.26;37.15
64316;BME280;50652;51.482;-0.580;2023-05-24T12:06:35;102416.16;;;23.49;38.47
64316;BME280;50652;51.482;-0.580;2023-05-24T12:09:03;102415.71;;;23.54;38.23
64316;BME280;50652;51.482;-0.580;2023-05-24T12:11:31;102410.25;;;23.25;35.50
64316;BME280;50652;51.482;-0.580;2023-05-24T12:13:58;102408.27;;;23.44;36.99
64316;BME280;50652;51.482;-0.580;2023-05-24T12:16:26;102408.65;;;23.46;36.12
64316;BME280;50652;51.482;-0.580;2023-05-24T12:18:55;102403.02;;;24.02;36.53
64316;BME280;50652;51.482;-0.580;2023-05-24T12:21:22;102406.69;;;23.13;35.65
64316;BME280;50652;51.482;-0.580;2023-05-24T12:23:49;102408.15;;;22.83;37.11
64316;BME280;50652;51.482;-0.580;2023-05-24T12:26:17;102407.00;;;22.51;36.70
64316;BME280;50652;51.482;-0.580;2023-05-24T12:28:47;102411.15;;;22.99;36.85
64316;BME280;50652;51.482;-0.580;2023-05-24T12:31:18;102411.86;;;22.87;36.61
64316;BME280;50652;51.482;-0.580;2023-05-24T12:33:46;102417.39;;;23.04;37.33
64316;BME280;50652;51.482;-0.580;2023-05-24T12:36:13;102413.94;;;23.65;36.80
64316;BME280;50652;51.482;-0.580;2023-05-24T12:38:40;102411.35;;;23.99;36.72
64316;BME280;50652;51.482;-0.580;2023-05-24T12:41:09;102413.80;;;23.82;36.39
64316;BME280;50652;51.482;-0.580;2023-05-24T12:43:36;102411.55;;;23.48;35.51
64316;BME280;50652;51.482;-0.580;2023-05-24T12:46:03;102412.06;;;23.84;35.93